Sunny Hill, Illinois
Current Conditions -  °F | °C
As of 2:52 AM on Wednesday 22 Oct 2014 (Local Time) from KMLI Reporting Station
Clear Clear  
Wind Chill: 34°   Ceiling: Unl
Heat Index: 34°   Visibility: 10mi
Dew Point: 33°   Wind: 3mph
Humidity: 96%   Direction: 100°E
Pressure: 30.28"   Gusts: NA
Location:  41.3669°N, 90.3966°W
Report Text: KMLI 220752Z AUTO 10003KT 10SM CLR 01/01 A3028 RMK AO2 SLP257 T00110006 $
Loading
Personal Weather Stations






























Interactive Weather Map
Tropical Storm Tracking
New forecast layout! Learn more

10-Day Weather Forecast

Advertisements
Track Severe Weather on mobile